Pleasanton, CA

3:26 PM PDT on August 25, 2016 (GMT -0700)
Mission Hills Park | | Change Station

Elev 348 ft 37.65 °N, 121.87 °W | Updated 3 days ago

Clear
Clear
74 °F
Feels Like 74 °F
N
13
Wind Variable Wind from WNW
Gusts mph

Today
High -- | Low -- °F
--% Chance of Precip.
Yesterday
High -- | Low -- °F
Precip. -- in
Pressure 29.86 in
Visibility 10.0 miles
Clouds Clear
Dew Point 53 °F
Humidity 48%
Rainfall in
Snow Depth Not available.
6:32 AM 7:45 PM
Last Quarter, 41% visible
METAR KLVK 252153Z 30010KT 10SM CLR 28/12 A2987 RMK AO2 SLP110 T02780117
Pressure 29.86 in
Visibility 10.0 miles
Clouds Clear
Dew Point 53 °F
Humidity 48%
Rainfall in
Snow Depth Not available.
6:32 AM 7:45 PM
Last Quarter, 41% visible
METAR KLVK 252153Z 30010KT 10SM CLR 28/12 A2987 RMK AO2 SLP110 T02780117
A tropical disturbance pushing toward the Bahamas, is expected to develop into a tropical depression or storm, and will likely target Florida and the Gulf Coast this weekend into next week.

Right now, the disturbance remains a broad area of low pressure pushing through the Dominican Republic and Haiti, headed toward the southeast Bahamas. Rainfall totals over 3 inches (with locally higher amounts) are expected in HispaƱiola, particularly over elevated terrain.

10-Day Weather Forecast

Almanac

Astronomy

Aug. 25, 2016 Rise Set
Actual Time
Civil Twilight
Nautical Twilight
Astronomical Twilight
Moon
Length of Visible Light
Length of Day
Tomorrow will be .
, % of the Moon is Illuminated

Today's Extremes

State Highs State Lows

Community

WunderPhotos

Upload Photos

1,934,952 photos uploaded!

WunderBlog® & News

Nearby

Air Quality

  Air Quality AQ Index Pollutant
Not available.

Snow Depth

Station Depth Elevation

Earthquake Activity

City Distance Mag. Time & Date
Minimum magnitude displayed is 2.5.

Coastal Water Temperatures

Place Temperature

Stations

Nearby Weather Stations

Station Location Temp. Windchill Dew Point Humidity Wind Precip. Elev Updated Type
                   

Watches & Warnings

There are currently no watches in effect.